Time;durP1;ratioP1;P1;durP2;ratioP2;P2;SDS_P1;SDS_P2;PMS_P1;PMS_P2;Temp;Humidity;BMP_temperature;BMP_pressure;BME280_temperature;BME280_humidity;BME280_pressure;Samples;Min_cycle;Max_cycle;Signal;HPM_P1;HPM_P2
2021/06/28 00:01:22;;;;;;;8.55;6.07;;;;;;;18.96;65.45;100909.50;5052832;28;20128;-72
2021/06/28 00:03:50;;;;;;;10.45;6.18;;;;;;;19.07;65.21;100908.50;5059602;28;20064;-74
2021/06/28 00:06:17;;;;;;;7.25;6.07;;;;;;;19.10;64.63;100913.59;5065445;28;20049;-72
2021/06/28 00:08:45;;;;;;;9.05;6.28;;;;;;;19.11;65.03;100907.25;5063420;28;20128;-73
2021/06/28 00:11:13;;;;;;;7.47;6.22;;;;;;;18.95;65.81;100913.13;5056940;28;20099;-73
2021/06/28 00:13:42;;;;;;;7.43;6.32;;;;;;;18.86;66.02;100912.09;5076250;28;20112;-72
2021/06/28 00:16:11;;;;;;;7.30;5.75;;;;;;;18.82;66.38;100920.53;5071693;28;20049;-72
2021/06/28 00:18:38;;;;;;;7.53;6.47;;;;;;;18.79;66.60;100913.66;5065283;28;20112;-73
2021/06/28 00:21:06;;;;;;;13.65;7.05;;;;;;;18.69;66.49;100908.28;5071962;28;20131;-72
2021/06/28 00:23:34;;;;;;;7.05;6.43;;;;;;;18.61;67.14;100912.59;5037616;28;20124;-73
2021/06/28 00:26:02;;;;;;;10.07;6.35;;;;;;;18.53;67.59;100910.59;5052237;28;20299;-72
2021/06/28 00:28:30;;;;;;;9.73;6.88;;;;;;;18.50;67.56;100910.00;5056479;28;20465;-73
2021/06/28 00:30:57;;;;;;;8.60;6.50;;;;;;;18.61;67.39;100912.59;5034887;28;20052;-72
2021/06/28 00:33:25;;;;;;;8.52;6.75;;;;;;;18.83;66.50;100915.06;5054922;28;20064;-73
2021/06/28 00:35:52;;;;;;;12.38;6.57;;;;;;;18.59;67.27;100909.19;5055096;28;20121;-72
2021/06/28 00:38:20;;;;;;;6.88;6.18;;;;;;;18.43;67.81;100915.03;5055267;28;20154;-72
2021/06/28 00:40:47;;;;;;;8.57;6.82;;;;;;;18.50;68.11;100916.19;5082068;28;20062;-72
2021/06/28 00:43:15;;;;;;;7.18;5.75;;;;;;;18.44;68.46;100917.56;5034867;28;20415;-73
2021/06/28 00:45:46;;;;;;;7.75;6.43;;;;;;;18.42;68.48;100914.19;5072562;28;20047;-70
2021/06/28 00:48:16;;;;;;;10.82;6.38;;;;;;;18.38;68.37;100918.13;5049996;28;20051;-72
2021/06/28 00:50:46;;;;;;;8.50;6.85;;;;;;;18.54;68.22;100914.94;5043062;28;20412;-71
2021/06/28 00:53:15;;;;;;;8.88;6.63;;;;;;;18.47;68.11;100908.47;5057001;28;20048;-71
2021/06/28 00:55:46;;;;;;;7.75;6.38;;;;;;;18.46;68.41;100912.09;5057399;28;20040;-72
2021/06/28 00:58:13;;;;;;;7.15;6.13;;;;;;;18.54;68.59;100906.94;5034102;28;20546;-73
2021/06/28 01:00:41;;;;;;;8.43;6.93;;;;;;;18.56;68.25;100910.31;5054077;28;20127;-71
2021/06/28 01:03:09;;;;;;;9.82;7.05;;;;;;;18.45;68.61;100908.59;5065421;28;20048;-72
2021/06/28 01:05:39;;;;;;;8.90;6.30;;;;;;;18.40;68.48;100908.16;5027757;28;20037;-72
2021/06/28 01:08:07;;;;;;;7.60;6.00;;;;;;;18.55;67.64;100905.09;5051917;28;20553;-73
2021/06/28 01:10:37;;;;;;;6.55;5.85;;;;;;;18.75;67.13;100908.72;5070064;28;20051;-74
2021/06/28 01:13:06;;;;;;;6.00;5.38;;;;;;;18.80;66.34;100910.00;5067563;28;20051;-72
2021/06/28 01:15:34;;;;;;;8.98;5.60;;;;;;;18.88;66.38;100920.84;5050566;28;20060;-72
2021/06/28 01:18:03;;;;;;;7.18;6.38;;;;;;;18.82;66.67;100915.19;5038356;28;20060;-71
2021/06/28 01:20:31;;;;;;;9.20;6.57;;;;;;;18.71;67.56;100918.81;5051739;28;20389;-71
2021/06/28 01:23:17;;;;;;;7.22;6.53;;;;;;;18.60;67.62;100909.06;5061308;28;20063;-72
2021/06/28 01:25:51;;;;;;;7.68;5.57;;;;;;;18.45;68.24;100905.06;5071860;28;20051;-74
2021/06/28 01:28:18;;;;;;;10.18;6.20;;;;;;;18.53;67.91;100905.25;5065342;28;20035;-71
2021/06/28 01:30:46;;;;;;;8.95;6.40;;;;;;;18.60;68.04;100903.75;5072498;28;20180;-72
2021/06/28 01:33:14;;;;;;;7.68;6.30;;;;;;;18.53;68.16;100907.06;5036389;28;20048;-72
2021/06/28 01:35:45;;;;;;;6.68;5.88;;;;;;;18.56;67.74;100902.31;5049778;28;20462;-72
2021/06/28 01:38:13;;;;;;;8.68;6.53;;;;;;;18.58;67.85;100912.84;5070478;28;20638;-71
2021/06/28 01:40:41;;;;;;;6.40;5.80;;;;;;;18.47;68.28;100911.13;5063146;28;20054;-71
2021/06/28 01:43:09;;;;;;;9.73;6.38;;;;;;;18.35;68.64;100915.69;5049849;28;20056;-73
2021/06/28 01:45:37;;;;;;;8.27;6.38;;;;;;;18.48;68.27;100916.31;5073612;28;20051;-73
2021/06/28 01:48:06;;;;;;;7.78;6.10;;;;;;;18.57;67.69;100912.00;5047561;28;20054;-72
2021/06/28 01:50:35;;;;;;;6.93;5.80;;;;;;;18.59;67.38;100912.69;5061240;28;20052;-71
2021/06/28 01:53:04;;;;;;;6.93;5.88;;;;;;;18.64;67.32;100905.16;5028889;28;20053;-72
2021/06/28 01:55:32;;;;;;;6.43;5.70;;;;;;;18.60;67.29;100909.06;5045991;28;20049;-71
2021/06/28 01:58:02;;;;;;;8.02;7.22;;;;;;;18.44;68.31;100903.41;5060000;28;20058;-70
2021/06/28 02:00:44;;;;;;;7.65;6.03;;;;;;;18.30;69.06;100909.09;5044548;28;20041;-72
2021/06/28 02:03:14;;;;;;;8.05;6.03;;;;;;;18.19;69.24;100915.34;5052581;28;20598;-72
2021/06/28 02:05:45;;;;;;;9.32;6.35;;;;;;;18.19;69.23;100916.19;5057033;28;20403;-72
2021/06/28 02:08:16;;;;;;;9.93;6.95;;;;;;;18.11;69.34;100913.34;5059317;28;20049;-72
2021/06/28 02:10:48;;;;;;;8.32;6.07;;;;;;;18.09;69.76;100912.63;5044770;28;20129;-71
2021/06/28 02:13:18;;;;;;;9.80;6.70;;;;;;;17.98;70.33;100912.72;5071120;28;20044;-72
2021/06/28 02:15:45;;;;;;;8.00;6.43;;;;;;;17.84;70.71;100913.88;5051361;28;20044;-73
2021/06/28 02:18:13;;;;;;;13.75;6.25;;;;;;;17.79;71.02;100912.59;5057306;28;20049;-72
2021/06/28 02:20:41;;;;;;;6.97;6.18;;;;;;;17.90;70.68;100912.50;5064939;28;20052;-72
2021/06/28 02:23:30;;;;;;;9.75;6.82;;;;;;;17.87;70.60;100907.44;5061320;28;20052;-72
2021/06/28 02:26:02;;;;;;;9.10;6.28;;;;;;;17.77;71.12;100903.88;5040306;28;20055;-72
2021/06/28 02:28:31;;;;;;;7.70;6.15;;;;;;;17.88;70.51;100904.66;5045742;28;20142;-73
2021/06/28 02:30:59;;;;;;;8.43;6.88;;;;;;;18.01;70.42;100908.91;5041655;28;20562;-72
2021/06/28 02:33:27;;;;;;;7.85;6.80;;;;;;;17.91;70.66;100899.06;5049344;28;20561;-71
2021/06/28 02:35:55;;;;;;;7.47;6.20;;;;;;;17.91;70.67;100896.38;5045691;28;20824;-71
2021/06/28 02:38:26;;;;;;;8.02;6.05;;;;;;;17.92;70.46;100891.91;5051053;28;20323;-72
2021/06/28 02:40:53;;;;;;;10.98;6.20;;;;;;;17.96;70.07;100896.00;5063952;28;20049;-73
2021/06/28 02:43:21;;;;;;;7.80;6.45;;;;;;;17.90;70.38;100896.53;5069690;28;20070;-72
2021/06/28 02:45:51;;;;;;;9.85;6.55;;;;;;;18.01;69.80;100896.44;5058162;28;20522;-72
2021/06/28 02:48:18;;;;;;;8.25;5.63;;;;;;;17.99;69.91;100895.75;5044322;28;20055;-72
2021/06/28 02:50:46;;;;;;;7.70;5.90;;;;;;;18.07;70.12;100893.28;5064233;28;20044;-72
2021/06/28 02:53:16;;;;;;;8.52;6.30;;;;;;;18.09;70.17;100883.31;5056469;28;20164;-72
2021/06/28 02:55:45;;;;;;;6.72;6.10;;;;;;;18.00;70.61;100886.78;5061103;28;20048;-71
2021/06/28 02:58:14;;;;;;;8.85;6.32;;;;;;;18.09;70.55;100874.47;5054130;28;20058;-72
2021/06/28 03:00:42;;;;;;;7.68;6.95;;;;;;;18.01;70.69;100874.28;5051356;28;20055;-73
2021/06/28 03:03:10;;;;;;;13.80;6.88;;;;;;;17.88;70.87;100877.19;5052857;28;20055;-73
2021/06/28 03:05:38;;;;;;;10.55;6.13;;;;;;;17.76;71.32;100871.09;5058468;28;20045;-72
2021/06/28 03:08:07;;;;;;;8.43;6.60;;;;;;;17.62;71.98;100872.22;5049523;28;20033;-72
2021/06/28 03:10:35;;;;;;;8.82;7.15;;;;;;;17.55;72.53;100864.88;5068221;28;20698;-72
2021/06/28 03:13:04;;;;;;;7.55;6.55;;;;;;;17.46;72.44;100872.66;5058820;28;20053;-71
2021/06/28 03:15:32;;;;;;;8.07;6.82;;;;;;;17.52;72.26;100863.34;5041701;28;20427;-72
2021/06/28 03:18:00;;;;;;;8.23;6.60;;;;;;;17.62;72.33;100874.03;5064936;28;20056;-72
2021/06/28 03:20:28;;;;;;;7.53;6.25;;;;;;;17.62;72.22;100871.38;5057690;28;20046;-73
2021/06/28 03:22:55;;;;;;;8.82;6.35;;;;;;;17.77;71.52;100879.91;5057533;28;20063;-71
2021/06/28 03:25:23;;;;;;;7.90;7.13;;;;;;;17.93;71.13;100881.13;5061742;28;20059;-72
2021/06/28 03:27:50;;;;;;;9.68;6.03;;;;;;;17.81;71.46;100882.19;5061113;28;20055;-72
2021/06/28 03:30:18;;;;;;;7.10;6.25;;;;;;;17.78;71.63;100886.91;5044678;28;20055;-72
2021/06/28 03:32:46;;;;;;;6.80;6.10;;;;;;;17.78;71.98;100884.25;5068790;28;20047;-73
2021/06/28 03:35:13;;;;;;;8.38;6.57;;;;;;;17.72;72.14;100878.44;5056223;28;20055;-73
2021/06/28 03:37:41;;;;;;;8.05;6.88;;;;;;;17.81;71.72;100882.19;5058735;28;20107;-72
2021/06/28 03:40:10;;;;;;;8.35;6.60;;;;;;;17.81;71.82;100884.84;5049675;28;20124;-71
2021/06/28 03:42:38;;;;;;;10.32;6.57;;;;;;;17.81;71.46;100884.00;5047015;28;20059;-71
2021/06/28 03:45:09;;;;;;;9.98;7.53;;;;;;;17.90;71.07;100885.88;5050824;28;20535;-72
2021/06/28 03:47:37;;;;;;;8.05;6.85;;;;;;;18.02;70.56;100887.50;5056572;28;20037;-72
2021/06/28 03:50:06;;;;;;;9.10;6.75;;;;;;;18.15;70.68;100887.28;5052926;28;20052;-73
2021/06/28 03:52:34;;;;;;;10.20;7.20;;;;;;;18.22;70.45;100889.28;5052907;28;20051;-75
2021/06/28 03:55:02;;;;;;;9.23;6.95;;;;;;;18.31;69.67;100889.44;5052544;28;20412;-72
2021/06/28 03:57:29;;;;;;;12.18;7.10;;;;;;;18.46;68.52;100883.63;5023942;28;20041;-71
2021/06/28 03:59:57;;;;;;;9.90;6.88;;;;;;;18.52;68.14;100887.56;5069414;28;20059;-73
2021/06/28 04:02:24;;;;;;;8.27;6.30;;;;;;;18.57;67.79;100890.69;5052011;28;20055;-72
2021/06/28 04:04:52;;;;;;;9.68;6.35;;;;;;;18.75;67.08;100887.41;5041566;28;20055;-71
2021/06/28 04:07:19;;;;;;;10.40;6.20;;;;;;;18.92;66.63;100884.91;5033878;28;20048;-71
2021/06/28 04:09:47;;;;;;;8.98;6.57;;;;;;;18.88;67.27;100891.50;5064862;28;20048;-72
2021/06/28 04:12:14;;;;;;;8.27;6.10;;;;;;;19.04;66.22;100904.28;5064347;28;20669;-73
2021/06/28 04:14:42;;;;;;;14.32;6.43;;;;;;;19.03;66.51;100901.75;5063593;28;20534;-71
2021/06/28 04:17:09;;;;;;;10.05;6.55;;;;;;;19.22;65.57;100899.09;5051097;28;20045;-73
2021/06/28 04:19:37;;;;;;;12.95;7.10;;;;;;;19.34;64.96;100895.31;5062695;28;20063;-72
2021/06/28 04:22:04;;;;;;;7.25;6.15;;;;;;;19.59;64.03;100904.59;5034777;28;20550;-72
2021/06/28 04:24:32;;;;;;;8.52;6.65;;;;;;;19.95;62.54;100903.03;5067986;28;20060;-72
2021/06/28 04:27:00;;;;;;;8.25;6.57;;;;;;;20.44;61.37;100898.38;5061793;28;20656;-74
2021/06/28 04:29:27;;;;;;;9.35;6.82;;;;;;;21.24;59.40;100901.28;5071164;28;20417;-74
2021/06/28 04:31:54;;;;;;;8.65;5.68;;;;;;;22.64;55.22;100895.91;5073363;28;20087;-74
2021/06/28 04:34:22;;;;;;;10.27;5.57;;;;;;;24.58;49.16;100900.63;5064156;28;20151;-74
2021/06/28 04:36:49;;;;;;;9.18;6.47;;;;;;;26.56;44.37;100897.84;5062485;28;20131;-75
2021/06/28 04:39:17;;;;;;;7.53;4.82;;;;;;;27.85;41.20;100906.09;5066857;28;20057;-74
2021/06/28 04:41:45;;;;;;;7.00;5.50;;;;;;;27.76;40.02;100905.41;5044616;28;20032;-73
2021/06/28 04:44:12;;;;;;;7.95;6.65;;;;;;;28.80;38.67;100907.25;5072725;28;20102;-72
2021/06/28 04:46:39;;;;;;;5.30;4.80;;;;;;;29.21;37.21;100902.59;5035312;28;20044;-74
2021/06/28 04:49:07;;;;;;;6.70;5.38;;;;;;;29.00;36.36;100906.31;5078832;28;20057;-72
2021/06/28 04:51:34;;;;;;;8.32;4.93;;;;;;;29.71;35.24;100910.38;5025293;28;20043;-74
2021/06/28 04:54:01;;;;;;;5.60;5.00;;;;;;;30.56;33.41;100905.03;5064108;28;20051;-74
2021/06/28 04:56:29;;;;;;;7.13;5.10;;;;;;;30.80;32.44;100904.31;5044571;28;20056;-72
2021/06/28 04:58:56;;;;;;;6.00;4.85;;;;;;;31.79;30.50;100905.53;5065733;28;20044;-74
2021/06/28 05:01:24;;;;;;;9.32;5.30;;;;;;;31.66;30.69;100902.94;5049217;28;20049;-74
2021/06/28 05:03:51;;;;;;;5.93;5.32;;;;;;;32.80;28.79;100898.81;5051980;28;20053;-73
2021/06/28 05:06:20;;;;;;;5.75;5.10;;;;;;;32.96;28.56;100903.66;5061574;28;20064;-73
2021/06/28 05:08:47;;;;;;;6.63;4.65;;;;;;;33.42;27.78;100901.28;5058316;28;20045;-74
2021/06/28 05:11:14;;;;;;;6.20;5.60;;;;;;;33.68;27.29;100902.75;5063038;28;20513;-74
2021/06/28 05:13:42;;;;;;;7.18;5.63;;;;;;;34.34;26.55;100906.19;5034053;28;20045;-72
2021/06/28 05:16:09;;;;;;;6.03;5.38;;;;;;;35.14;25.53;100913.56;5042509;28;20920;-72
2021/06/28 05:18:36;;;;;;;7.25;4.85;;;;;;;35.20;25.00;100902.47;5042631;28;20029;-73
2021/06/28 05:21:04;;;;;;;9.85;5.25;;;;;;;34.92;25.33;100911.50;5061591;28;20049;-73
2021/06/28 05:23:31;;;;;;;6.82;5.43;;;;;;;34.94;25.66;100905.78;5050567;28;20655;-73
2021/06/28 05:25:59;;;;;;;8.80;5.22;;;;;;;35.14;24.67;100908.09;5045675;28;20416;-74
2021/06/28 05:28:26;;;;;;;6.60;5.18;;;;;;;35.21;24.65;100895.91;5073691;28;20043;-75
2021/06/28 05:30:53;;;;;;;6.78;5.28;;;;;;;35.63;24.12;100895.56;5070766;28;20318;-73
2021/06/28 05:33:21;;;;;;;10.00;6.15;;;;;;;34.88;25.46;100891.19;5050428;28;20032;-75
2021/06/28 05:35:48;;;;;;;5.80;4.90;;;;;;;35.67;24.31;100883.00;5064993;28;20053;-76
2021/06/28 05:38:16;;;;;;;7.35;5.47;;;;;;;35.59;24.45;100875.22;5058765;28;20051;-74
2021/06/28 05:40:43;;;;;;;5.95;4.93;;;;;;;35.64;23.89;100875.28;5064778;28;20053;-73
2021/06/28 05:43:10;;;;;;;5.47;4.70;;;;;;;35.90;23.63;100867.47;5068184;28;20052;-76
2021/06/28 05:45:38;;;;;;;5.68;5.05;;;;;;;36.49;23.08;100878.69;5055626;28;20056;-73
2021/06/28 05:48:06;;;;;;;5.95;4.75;;;;;;;37.01;22.18;100887.22;5065482;28;20050;-74
2021/06/28 05:50:33;;;;;;;10.65;4.90;;;;;;;35.90;23.51;100883.91;5066247;28;20049;-74
2021/06/28 05:53:02;;;;;;;5.60;5.10;;;;;;;35.03;24.38;100885.19;5064049;28;20052;-76
2021/06/28 05:55:29;;;;;;;6.28;5.20;;;;;;;34.16;25.96;100883.41;5066219;28;20048;-73
2021/06/28 05:57:57;;;;;;;9.85;5.55;;;;;;;33.30;26.71;100881.31;5061421;28;20516;-74
2021/06/28 06:00:24;;;;;;;7.25;4.97;;;;;;;32.89;27.87;100888.41;5068621;28;20052;-74
2021/06/28 06:02:52;;;;;;;9.00;5.22;;;;;;;33.95;26.49;100879.41;5042120;28;20501;-74
2021/06/28 06:05:19;;;;;;;8.10;4.80;;;;;;;34.89;25.16;100886.53;5052037;28;20049;-74
2021/06/28 06:07:47;;;;;;;12.57;5.53;;;;;;;35.87;24.10;100889.88;5053335;28;20055;-74
2021/06/28 06:10:15;;;;;;;8.45;5.50;;;;;;;36.38;23.23;100891.41;5058600;28;20074;-73
2021/06/28 06:12:47;;;;;;;8.90;5.53;;;;;;;36.46;23.52;100893.72;5061766;28;20516;-73
2021/06/28 06:15:15;;;;;;;8.70;5.30;;;;;;;36.04;23.85;100892.63;5046460;28;20684;-74
2021/06/28 06:17:44;;;;;;;12.93;5.03;;;;;;;36.92;22.84;100896.19;5047055;28;20036;-75
2021/06/28 06:20:12;;;;;;;8.82;5.78;;;;;;;37.47;22.31;100895.09;5046916;28;20047;-74
2021/06/28 06:22:40;;;;;;;17.98;5.93;;;;;;;36.08;23.76;100893.78;5042353;28;20040;-74
2021/06/28 06:25:07;;;;;;;11.73;4.82;;;;;;;36.51;23.73;100895.72;5064948;28;20060;-73
2021/06/28 06:27:37;;;;;;;13.95;5.70;;;;;;;37.39;22.29;100896.41;5057692;28;20146;-72
2021/06/28 06:30:06;;;;;;;13.88;5.43;;;;;;;37.54;22.26;100895.69;5065013;28;20056;-74
2021/06/28 06:32:44;;;;;;;9.40;5.13;;;;;;;37.43;22.30;100899.44;5047231;28;20048;-74
2021/06/28 06:35:13;;;;;;;6.25;5.15;;;;;;;37.41;22.20;100901.63;5064042;28;20045;-73
2021/06/28 06:37:41;;;;;;;12.05;5.78;;;;;;;38.09;21.46;100896.31;5067468;28;20550;-74
2021/06/28 06:40:09;;;;;;;17.80;5.38;;;;;;;37.39;22.10;100901.88;5038699;28;20049;-74
2021/06/28 06:42:37;;;;;;;10.02;5.35;;;;;;;36.43;23.29;100905.22;5040084;28;20083;-73
2021/06/28 06:45:05;;;;;;;10.38;5.82;;;;;;;37.18;22.78;100909.06;5065287;28;20062;-74
2021/06/28 06:47:33;;;;;;;7.38;5.80;;;;;;;37.72;22.00;100905.41;5063331;28;20070;-72
2021/06/28 06:50:01;;;;;;;11.85;5.90;;;;;;;38.38;21.35;100905.84;5064717;28;20079;-74
2021/06/28 06:52:28;;;;;;;11.13;6.43;;;;;;;38.03;21.40;100903.72;5044308;28;20056;-74
2021/06/28 06:54:56;;;;;;;10.88;5.97;;;;;;;37.98;21.60;100904.53;5039956;28;20044;-75
2021/06/28 06:57:23;;;;;;;14.65;6.15;;;;;;;38.16;21.27;100913.41;5053139;28;20053;-73
2021/06/28 06:59:50;;;;;;;9.88;6.05;;;;;;;38.50;21.14;100913.88;5042277;28;20054;-74
2021/06/28 07:02:18;;;;;;;11.57;6.28;;;;;;;38.15;21.50;100915.34;5044298;28;20390;-74
2021/06/28 07:04:45;;;;;;;11.90;5.75;;;;;;;38.18;21.78;100908.47;5064197;28;20059;-74
2021/06/28 07:07:13;;;;;;;7.53;5.60;;;;;;;38.72;20.81;100911.72;5047339;28;20058;-74
2021/06/28 07:09:40;;;;;;;10.75;5.72;;;;;;;38.61;21.01;100910.06;5064495;28;20052;-74
2021/06/28 07:12:07;;;;;;;8.18;6.05;;;;;;;38.60;20.98;100902.91;5035741;28;20547;-74
2021/06/28 07:14:35;;;;;;;8.20;6.20;;;;;;;38.50;21.05;100916.63;5072799;28;20059;-73
2021/06/28 07:17:03;;;;;;;15.27;7.65;;;;;;;39.03;20.07;100917.34;5064473;28;20040;-74
2021/06/28 07:19:31;;;;;;;12.82;6.78;;;;;;;39.24;20.25;100909.97;5066566;28;20044;-74
2021/06/28 07:21:58;;;;;;;7.38;6.35;;;;;;;39.12;20.09;100923.97;5073078;28;20560;-73
2021/06/28 07:24:25;;;;;;;11.02;6.45;;;;;;;39.56;19.46;100920.72;5055117;28;20058;-74
2021/06/28 07:26:53;;;;;;;8.82;6.45;;;;;;;39.98;19.09;100925.91;5068179;28;20074;-75
2021/06/28 07:29:21;;;;;;;8.80;6.93;;;;;;;40.54;18.74;100930.47;5055628;28;20465;-74
2021/06/28 07:31:48;;;;;;;7.60;7.00;;;;;;;41.03;18.06;100929.66;5073845;28;20056;-75
2021/06/28 07:34:16;;;;;;;13.18;6.45;;;;;;;40.38;18.98;100920.56;5070837;28;20148;-72
2021/06/28 07:36:44;;;;;;;10.65;7.20;;;;;;;39.96;19.32;100916.28;5063979;28;20040;-73
2021/06/28 07:39:12;;;;;;;8.20;6.63;;;;;;;41.02;18.12;100914.19;5045710;28;20048;-73
2021/06/28 07:41:39;;;;;;;7.70;6.90;;;;;;;40.33;18.75;100912.31;5045099;28;20060;-73
2021/06/28 07:44:07;;;;;;;7.28;6.53;;;;;;;40.94;18.09;100917.56;5067465;28;20066;-73
2021/06/28 07:46:35;;;;;;;8.85;6.90;;;;;;;41.28;17.69;100919.53;5064402;28;20044;-72
2021/06/28 07:49:04;;;;;;;7.20;6.32;;;;;;;41.67;17.30;100911.19;5041053;28;20033;-74
2021/06/28 07:51:35;;;;;;;8.65;6.72;;;;;;;41.55;17.42;100917.09;5064654;28;20045;-73
2021/06/28 07:54:04;;;;;;;7.63;6.90;;;;;;;40.86;18.04;100907.09;5048555;28;20056;-73
2021/06/28 07:56:32;;;;;;;7.35;6.40;;;;;;;42.21;16.37;100905.41;5044704;28;20496;-74
2021/06/28 07:58:59;;;;;;;7.07;6.18;;;;;;;41.80;16.85;100912.50;5069646;28;20067;-75
2021/06/28 08:01:29;;;;;;;6.65;5.95;;;;;;;41.13;17.01;100909.44;5063840;28;20057;-72
2021/06/28 08:03:56;;;;;;;5.93;5.30;;;;;;;40.37;17.29;100900.44;5044997;28;20056;-75
2021/06/28 08:06:24;;;;;;;5.93;5.10;;;;;;;40.00;17.42;100898.88;5048413;28;20392;-73
2021/06/28 08:08:51;;;;;;;7.43;5.15;;;;;;;41.98;15.22;100903.44;5044735;28;20123;-76
2021/06/28 08:11:20;;;;;;;9.90;5.68;;;;;;;41.85;15.29;100904.13;5063327;28;20045;-73
2021/06/28 08:13:50;;;;;;;6.60;5.47;;;;;;;42.19;15.27;100906.78;5069514;28;20063;-74
2021/06/28 08:16:19;;;;;;;5.47;5.07;;;;;;;42.00;15.12;100903.97;5068124;28;20158;-74
2021/06/28 08:18:48;;;;;;;7.18;5.57;;;;;;;41.10;15.64;100904.47;5048293;28;20376;-74
2021/06/28 08:21:35;;;;;;;7.30;5.45;;;;;;;42.16;14.41;100901.84;5054065;28;20049;-74
2021/06/28 08:24:05;;;;;;;10.30;4.97;;;;;;;41.20;15.04;100905.22;5052671;28;20048;-73
2021/06/28 08:26:33;;;;;;;11.13;5.47;;;;;;;41.58;15.08;100901.91;5063987;28;20464;-73
2021/06/28 08:29:03;;;;;;;5.22;4.72;;;;;;;40.27;16.44;100891.38;5072520;28;20585;-74
2021/06/28 08:31:31;;;;;;;5.22;4.72;;;;;;;41.40;14.99;100898.72;5054934;28;20040;-72
2021/06/28 08:34:11;;;;;;;6.32;5.05;;;;;;;39.39;17.52;100900.88;5050397;28;20053;-74
2021/06/28 08:36:39;;;;;;;5.60;5.10;;;;;;;37.81;18.55;100898.34;5057826;28;20047;-74
2021/06/28 08:39:07;;;;;;;8.00;4.90;;;;;;;36.20;20.88;100905.41;5067506;28;20451;-73
2021/06/28 08:41:35;;;;;;;5.03;4.50;;;;;;;34.64;22.10;100901.38;5064186;28;20062;-74
2021/06/28 08:44:03;;;;;;;4.88;4.38;;;;;;;34.00;23.39;100895.91;5049331;28;20491;-74
2021/06/28 08:46:30;;;;;;;3.83;3.03;;;;;;;34.13;23.03;100897.53;5045043;28;20059;-75
2021/06/28 08:48:59;;;;;;;3.60;3.30;;;;;;;33.70;23.02;100895.16;5065793;28;20048;-73
2021/06/28 08:51:26;;;;;;;4.00;3.03;;;;;;;32.33;25.09;100898.50;5041477;28;20052;-75
2021/06/28 08:54:06;;;;;;;3.42;3.13;;;;;;;32.95;24.07;100891.06;5070589;28;20044;-73
2021/06/28 08:56:34;;;;;;;4.63;4.13;;;;;;;32.49;25.33;100899.81;5063616;28;20059;-73
2021/06/28 08:59:05;;;;;;;10.65;4.65;;;;;;;32.38;26.24;100895.13;5072376;28;20072;-73
2021/06/28 09:01:35;;;;;;;9.55;4.28;;;;;;;31.40;27.50;100893.94;5048228;28;20055;-75
2021/06/28 09:04:03;;;;;;;4.32;3.92;;;;;;;31.76;26.63;100890.50;5067251;28;20079;-76
2021/06/28 09:06:31;;;;;;;11.27;3.40;;;;;;;31.86;25.83;100891.91;5056031;28;20688;-73
2021/06/28 09:09:04;;;;;;;6.25;3.78;;;;;;;31.37;26.69;100894.38;5060638;28;20508;-75
2021/06/28 09:11:37;;;;;;;7.07;3.80;;;;;;;31.07;27.14;100891.41;5062363;28;20060;-74
2021/06/28 09:14:06;;;;;;;8.25;3.55;;;;;;;30.76;27.32;100892.22;5076019;28;20056;-73
2021/06/28 09:16:34;;;;;;;5.68;3.70;;;;;;;31.07;26.52;100893.28;5027573;28;20135;-74
2021/06/28 09:19:14;;;;;;;3.47;3.17;;;;;;;31.05;26.80;100889.97;5051039;28;20059;-74
2021/06/28 09:21:44;;;;;;;8.57;4.00;;;;;;;31.59;26.09;100889.38;5064995;28;20053;-74
2021/06/28 09:24:31;;;;;;;5.43;3.22;;;;;;;31.84;25.82;100885.81;5076354;28;20119;-74
2021/06/28 09:27:10;;;;;;;9.63;3.80;;;;;;;32.41;25.03;100892.78;5071134;28;20101;-73
2021/06/28 09:29:40;;;;;;;5.22;4.03;;;;;;;32.00;25.80;100879.81;5060496;28;20092;-73
2021/06/28 09:32:11;;;;;;;7.80;4.22;;;;;;;32.26;24.99;100884.13;5059856;28;20100;-74
2021/06/28 09:34:40;;;;;;;7.57;3.90;;;;;;;32.86;24.32;100892.41;5036333;28;20063;-75
2021/06/28 09:37:12;;;;;;;6.47;3.58;;;;;;;32.51;24.90;100889.50;5057127;28;20147;-72
2021/06/28 09:39:42;;;;;;;6.45;4.13;;;;;;;32.48;24.74;100887.28;5040148;28;20045;-74
2021/06/28 09:42:15;;;;;;;4.75;3.03;;;;;;;32.25;23.92;100883.31;5054345;28;20108;-75
2021/06/28 09:44:53;;;;;;;4.20;3.60;;;;;;;32.19;24.46;100880.66;5046103;28;20097;-72
2021/06/28 09:47:24;;;;;;;4.65;3.28;;;;;;;32.48;24.13;100890.00;5069850;28;20475;-75
2021/06/28 09:50:11;;;;;;;4.85;3.50;;;;;;;32.69;24.36;100885.94;5076912;28;20046;-74
2021/06/28 09:52:43;;;;;;;4.20;3.53;;;;;;;32.46;24.76;100897.56;5059732;28;20131;-73
2021/06/28 09:55:29;;;;;;;5.40;3.70;;;;;;;32.38;24.88;100893.25;5049656;28;20059;-74
2021/06/28 09:58:24;;;;;;;4.43;3.80;;;;;;;32.22;25.17;100881.03;5029934;28;20053;-75
2021/06/28 10:00:55;;;;;;;5.80;3.92;;;;;;;31.52;25.79;100877.72;5044510;28;20074;-75
2021/06/28 10:03:34;;;;;;;6.50;3.95;;;;;;;31.48;26.44;100879.22;5069870;28;20057;-73
2021/06/28 10:08:50;;;;;;;4.32;3.92;;;;;;;31.45;26.15;100874.22;5066434;28;20124;-76
2021/06/28 10:11:22;;;;;;;8.63;4.32;;;;;;;31.47;26.39;100866.66;5043297;28;20376;-72
2021/06/28 10:13:56;;;;;;;9.35;4.45;;;;;;;32.02;25.63;100875.00;5053121;28;20108;-75
2021/06/28 10:16:26;;;;;;;6.93;3.85;;;;;;;31.99;25.05;100867.25;5044902;28;20123;-73
2021/06/28 10:18:58;;;;;;;6.60;3.95;;;;;;;31.96;24.74;100867.69;5052695;28;20390;-74
2021/06/28 10:21:26;;;;;;;10.73;4.68;;;;;;;31.91;25.54;100868.38;5040387;28;20517;-73
2021/06/28 10:23:53;;;;;;;9.27;4.38;;;;;;;31.62;25.75;100867.19;5054778;28;20566;-73
2021/06/28 10:26:22;;;;;;;5.68;3.80;;;;;;;31.25;26.69;100858.00;5065477;28;20055;-73
2021/06/28 10:28:50;;;;;;;5.60;4.32;;;;;;;31.11;26.49;100860.00;5045134;28;20063;-73
2021/06/28 10:31:18;;;;;;;6.00;3.88;;;;;;;31.06;27.00;100856.28;5064079;28;20044;-75
2021/06/28 10:33:57;;;;;;;6.25;4.57;;;;;;;31.30;25.99;100847.34;5037800;28;20060;-72
2021/06/28 10:36:39;;;;;;;12.50;3.78;;;;;;;31.46;26.55;100848.69;5059551;28;20053;-72
2021/06/28 10:39:08;;;;;;;9.00;4.90;;;;;;;31.58;26.07;100851.50;5052611;28;20053;-75
2021/06/28 10:41:43;;;;;;;5.53;4.03;;;;;;;30.79;27.10;100851.00;5073875;28;20032;-73
2021/06/28 10:44:11;;;;;;;;;;;;;;;30.29;27.44;100844.53;5052105;28;20523;-73
2021/06/28 10:46:40;;;;;;;4.85;3.72;;;;;;;29.99;28.14;100842.28;5052642;28;20409;-74
2021/06/28 10:49:07;;;;;;;6.68;3.75;;;;;;;30.81;26.81;100820.91;5076971;28;20261;-74
2021/06/28 10:51:47;;;;;;;6.95;4.30;;;;;;;31.40;26.42;100830.53;5070358;28;20035;-73
2021/06/28 10:54:35;;;;;;;5.43;3.78;;;;;;;31.78;25.34;100820.31;5035308;28;20051;-73
2021/06/28 10:57:04;;;;;;;4.53;3.65;;;;;;;31.32;26.00;100818.03;5069705;28;20055;-74
2021/06/28 10:59:40;;;;;;;4.45;3.45;;;;;;;31.85;25.03;100816.72;5047405;28;20078;-73
2021/06/28 11:02:12;;;;;;;3.50;3.08;;;;;;;32.56;23.17;100813.38;5068601;28;20132;-74
2021/06/28 11:04:53;;;;;;;4.53;3.47;;;;;;;32.80;23.73;100811.56;5072690;28;20347;-72
2021/06/28 11:07:21;;;;;;;5.22;3.53;;;;;;;32.86;23.53;100817.97;5065114;28;20057;-71
2021/06/28 11:09:53;;;;;;;4.47;3.08;;;;;;;32.77;23.07;100815.56;5047987;28;20609;-70
2021/06/28 11:12:25;;;;;;;3.55;3.15;;;;;;;32.92;22.21;100812.47;5051191;28;20051;-71
2021/06/28 11:15:09;;;;;;;3.00;2.67;;;;;;;33.21;22.31;100813.44;5052123;28;20059;-72
2021/06/28 11:17:47;;;;;;;5.88;3.28;;;;;;;32.98;22.33;100814.25;5069914;28;20052;-71
2021/06/28 11:20:25;;;;;;;5.40;3.17;;;;;;;33.31;22.45;100806.56;5061791;28;20047;-71
2021/06/28 11:22:59;;;;;;;8.40;3.60;;;;;;;33.45;22.43;100816.22;5072344;28;20044;-72
2021/06/28 11:25:47;;;;;;;;;;;;;;;33.62;22.53;100808.16;5031536;28;20580;-71
2021/06/28 11:28:20;;;;;;;6.78;2.90;;;;;;;33.10;22.56;100806.09;5068969;28;19920;-71
2021/06/28 11:30:51;;;;;;;9.18;3.00;;;;;;;32.72;22.58;100803.69;5044296;28;20044;-73
2021/06/28 11:33:31;;;;;;;3.85;3.22;;;;;;;32.85;22.86;100795.31;5053624;28;20072;-70
2021/06/28 11:36:00;;;;;;;4.65;3.20;;;;;;;33.21;22.86;100801.69;5067252;28;20059;-72
2021/06/28 11:38:35;;;;;;;7.57;3.22;;;;;;;32.67;23.51;100801.66;5071858;28;20056;-72